Terminal Aerodrome Forecast
Issued by NWS Wilmington, NC

Home | Current Version | Previous Version | Text Only | Print | Product List | Glossary On
Versions: 1 2 3 4 5 6 7 8 9 10 11 12 13 14 15 16 17 18 19 20 21 22 23 24
076
FTUS42 KILM 230553 CCA
TAFLBT
TAF COR
KLBT 230553Z 2306/2406 20005KT P6SM FEW100
      TEMPO 2309/2312 5SM BR
     FM231400 21007KT P6SM SCT040
     FM232100 20008KT P6SM VCTS BKN050CB
     FM240200 21006KT 5SM -SHRA VCTS BKN040CB=

USA.gov is the U.S. government's official web portal to all federal, state and local government web resources and services.